createdAt,value
2022-10-13T00:03:20.725Z,18.18
2022-10-13T00:08:18.826Z,18.10
2022-10-13T00:13:16.153Z,18.18
2022-10-13T00:18:12.809Z,18.19
2022-10-13T00:23:10.078Z,18.26
2022-10-13T00:28:08.952Z,18.32
2022-10-13T00:33:05.738Z,18.20
2022-10-13T00:38:02.386Z,18.16
2022-10-13T00:43:01.341Z,18.32
2022-10-13T00:47:59.334Z,18.39
2022-10-13T00:52:56.416Z,18.36
2022-10-13T00:57:55.371Z,17.79
2022-10-13T01:03:00.545Z,16.99
2022-10-13T01:07:57.487Z,16.99
2022-10-13T01:13:00.827Z,17.41
2022-10-13T01:18:02.366Z,17.64
2022-10-13T01:23:06.755Z,17.67
2022-10-13T01:28:18.154Z,17.75
2022-10-13T01:33:19.964Z,17.92
2022-10-13T01:38:22.720Z,17.79
2022-10-13T01:43:23.429Z,17.79
2022-10-13T01:48:21.151Z,17.92
2022-10-13T01:53:21.549Z,17.78
2022-10-13T01:58:23.631Z,17.89
2022-10-13T02:03:23.407Z,17.66
2022-10-13T02:08:24.882Z,17.79
2022-10-13T02:13:23.420Z,18.01
2022-10-13T02:18:22.133Z,17.92
2022-10-13T02:23:19.509Z,17.87
2022-10-13T02:28:18.040Z,18.03
2022-10-13T02:33:15.407Z,18.06
2022-10-13T02:38:12.676Z,18.16
2022-10-13T02:43:10.133Z,18.19
2022-10-13T02:48:07.015Z,17.99
2022-10-13T02:53:03.669Z,18.01
2022-10-13T02:58:00.322Z,18.09
2022-10-13T03:02:57.600Z,18.23
2022-10-13T03:07:54.356Z,18.14
2022-10-13T03:12:51.048Z,18.15
2022-10-13T03:17:48.172Z,18.00
2022-10-13T03:22:49.545Z,17.90
2022-10-13T03:27:46.758Z,17.95
2022-10-13T03:32:43.710Z,17.54
2022-10-13T03:37:40.164Z,17.53
2022-10-13T03:42:37.608Z,16.91
2022-10-13T03:47:36.733Z,16.79
2022-10-13T03:52:33.283Z,16.79
2022-10-13T03:57:30.148Z,16.90
2022-10-13T04:02:27.468Z,16.97
2022-10-13T04:07:24.428Z,16.97
2022-10-13T04:12:21.473Z,16.92
2022-10-13T04:17:18.158Z,16.95
2022-10-13T04:22:15.363Z,16.79
2022-10-13T04:27:18.428Z,16.93
2022-10-13T04:32:17.329Z,16.96
2022-10-13T04:37:14.181Z,16.89
2022-10-13T04:42:11.467Z,17.00
2022-10-13T04:47:08.667Z,17.02
2022-10-13T04:52:07.169Z,16.97
2022-10-13T04:57:04.010Z,17.01
2022-10-13T05:02:02.723Z,16.89
2022-10-13T05:07:18.500Z,16.80
2022-10-13T05:12:15.528Z,16.81
2022-10-13T05:17:15.649Z,16.74
2022-10-13T05:22:12.308Z,16.73
2022-10-13T05:27:12.266Z,16.31
2022-10-13T05:32:09.019Z,15.69
2022-10-13T05:37:06.488Z,15.90
2022-10-13T05:42:05.152Z,15.35
2022-10-13T05:47:07.182Z,14.91
2022-10-13T05:52:07.256Z,15.17
2022-10-13T05:57:06.315Z,15.56
2022-10-13T06:02:04.107Z,15.90
2022-10-13T06:07:00.752Z,16.05
2022-10-13T06:11:59.604Z,16.19
2022-10-13T06:16:57.129Z,16.47
2022-10-13T06:21:57.206Z,16.55
2022-10-13T06:26:56.741Z,16.08
2022-10-13T06:31:53.632Z,15.67
2022-10-13T06:36:53.682Z,15.55
2022-10-13T06:41:51.822Z,15.88
2022-10-13T06:47:14.242Z,16.17
2022-10-13T06:52:13.091Z,15.53
2022-10-13T06:57:11.812Z,15.12
2022-10-13T07:02:13.876Z,14.90
2022-10-13T07:07:11.443Z,15.07
2022-10-13T07:12:08.527Z,14.74
2022-10-13T07:17:05.284Z,15.10
2022-10-13T07:22:02.125Z,15.49
2022-10-13T07:27:02.752Z,15.93
2022-10-13T07:32:02.106Z,16.33
2022-10-13T07:36:58.822Z,16.41
2022-10-13T07:41:56.179Z,16.71
2022-10-13T07:46:53.527Z,16.91
2022-10-13T07:51:50.152Z,17.17
2022-10-13T07:56:50.903Z,17.17
2022-10-13T08:02:24.554Z,17.22
2022-10-13T08:08:25.223Z,17.22
2022-10-13T08:13:02.059Z,16.51
2022-10-13T08:17:59.529Z,16.45
2022-10-13T08:22:56.297Z,16.25
2022-10-13T08:27:56.864Z,16.36
2022-10-13T08:32:56.773Z,16.61
2022-10-13T08:37:54.419Z,16.80
2022-10-13T08:42:58.056Z,16.97
2022-10-13T08:48:00.108Z,17.23
2022-10-13T08:52:59.432Z,17.45
2022-10-13T08:57:56.542Z,17.70
2022-10-13T09:02:57.916Z,17.74
2022-10-13T09:07:56.158Z,17.61
2022-10-13T09:12:56.502Z,17.81
2022-10-13T09:18:08.838Z,17.84
2022-10-13T09:23:06.534Z,17.67
2022-10-13T09:28:09.789Z,17.82
2022-10-13T09:33:22.822Z,17.83
2022-10-13T09:38:20.871Z,17.86
2022-10-13T09:43:27.766Z,18.04
2022-10-13T09:48:26.209Z,18.36
2022-10-13T09:53:25.949Z,18.45
2022-10-13T09:58:26.928Z,18.66
2022-10-13T10:03:26.061Z,18.56
2022-10-13T10:08:33.508Z,18.65
2022-10-13T10:13:36.581Z,18.77
2022-10-13T10:18:38.987Z,18.68
2022-10-13T10:23:40.518Z,18.68
2022-10-13T10:28:48.900Z,19.03
2022-10-13T10:33:51.539Z,19.37
2022-10-13T10:38:51.081Z,19.18
2022-10-13T10:43:51.964Z,19.28
2022-10-13T10:48:50.337Z,19.67
2022-10-13T10:53:56.637Z,19.44
2022-10-13T10:58:59.338Z,19.63
2022-10-13T11:03:58.795Z,19.84
2022-10-13T11:08:55.409Z,19.99
2022-10-13T11:13:53.991Z,20.17
2022-10-13T11:19:05.995Z,20.31
2022-10-13T11:24:03.127Z,20.27
2022-10-13T11:29:00.115Z,20.42
2022-10-13T11:34:01.054Z,20.42
2022-10-13T11:39:02.111Z,20.83
2022-10-13T11:44:02.632Z,20.81
2022-10-13T11:49:11.552Z,20.87
2022-10-13T11:54:19.540Z,20.75
2022-10-13T11:59:22.494Z,20.89
2022-10-13T12:04:20.756Z,20.74
2022-10-13T12:09:19.640Z,20.86
2022-10-13T12:14:20.592Z,20.53
2022-10-13T12:19:19.955Z,20.56
2022-10-13T12:24:16.869Z,20.62
2022-10-13T12:29:14.574Z,21.00
2022-10-13T12:34:20.363Z,20.91
2022-10-13T12:39:18.152Z,20.86
2022-10-13T12:44:18.200Z,20.88
2022-10-13T12:49:16.193Z,20.82
2022-10-13T12:54:18.510Z,21.07
2022-10-13T12:59:17.623Z,21.02
2022-10-13T13:04:19.024Z,20.86
2022-10-13T13:09:21.348Z,20.95
2022-10-13T13:14:42.089Z,20.92
2022-10-13T13:19:41.104Z,20.97
2022-10-13T13:24:40.599Z,21.32
2022-10-13T13:29:39.568Z,20.70
2022-10-13T13:34:36.338Z,21.15
2022-10-13T13:39:33.849Z,21.27
2022-10-13T13:44:30.691Z,21.27
2022-10-13T13:49:27.577Z,21.35
2022-10-13T13:54:24.279Z,21.15
2022-10-13T13:59:21.762Z,20.63
2022-10-13T14:04:22.880Z,20.86
2022-10-13T14:09:19.815Z,20.82
2022-10-13T14:14:16.452Z,20.66
2022-10-13T14:19:15.306Z,20.73
2022-10-13T14:24:12.910Z,20.87
2022-10-13T14:29:09.939Z,20.82
2022-10-13T14:34:06.803Z,20.84
2022-10-13T14:39:05.069Z,20.68
2022-10-13T14:44:06.817Z,20.38
2022-10-13T14:49:04.659Z,20.42
2022-10-13T14:54:06.293Z,20.58
2022-10-13T14:59:07.418Z,20.67
2022-10-13T15:04:07.878Z,20.57
2022-10-13T15:09:05.332Z,20.16
2022-10-13T15:14:02.139Z,20.26
2022-10-13T15:18:59.006Z,20.20
2022-10-13T15:23:57.478Z,20.16
2022-10-13T15:28:55.008Z,20.22
2022-10-13T15:33:52.613Z,20.10
2022-10-13T15:38:50.366Z,20.06
2022-10-13T15:43:50.029Z,19.87
2022-10-13T15:48:49.206Z,20.20
2022-10-13T15:53:46.170Z,20.25
2022-10-13T15:58:43.277Z,20.07
2022-10-13T16:03:43.450Z,20.03
2022-10-13T16:08:43.161Z,20.15
2022-10-13T16:13:40.201Z,19.96
2022-10-13T16:18:39.246Z,20.02
2022-10-13T16:23:36.032Z,20.04
2022-10-13T16:28:33.800Z,20.06
2022-10-13T16:33:33.990Z,20.17
2022-10-13T16:38:41.594Z,20.16
2022-10-13T16:43:39.060Z,20.03
2022-10-13T16:48:35.923Z,19.97
2022-10-13T16:53:32.811Z,19.92
2022-10-13T16:58:31.893Z,19.92
2022-10-13T17:03:31.944Z,19.87
2022-10-13T17:08:37.197Z,19.72
2022-10-13T17:13:42.753Z,19.79
2022-10-13T17:18:40.233Z,19.73
2022-10-13T17:23:39.173Z,19.80
2022-10-13T17:28:42.321Z,19.78
2022-10-13T17:33:43.308Z,19.70
2022-10-13T17:38:43.182Z,19.64
2022-10-13T17:43:40.523Z,19.56
2022-10-13T17:48:37.409Z,19.42
2022-10-13T17:53:34.792Z,19.50
2022-10-13T17:58:31.788Z,19.52
2022-10-13T18:03:28.740Z,19.48
2022-10-13T18:08:25.611Z,19.48
2022-10-13T18:13:23.220Z,19.46
2022-10-13T18:18:19.917Z,19.48
2022-10-13T18:23:18.838Z,19.43
2022-10-13T18:28:17.756Z,19.45
2022-10-13T18:33:15.293Z,19.57
2022-10-13T18:38:12.010Z,19.51
2022-10-13T18:43:10.037Z,19.36
2022-10-13T18:48:07.209Z,19.30
2022-10-13T18:53:04.838Z,19.13
2022-10-13T18:58:02.153Z,19.10
2022-10-13T19:02:58.995Z,19.26
2022-10-13T19:07:58.682Z,19.26
2022-10-13T19:12:56.247Z,19.17
2022-10-13T19:17:53.254Z,19.08
2022-10-13T19:22:50.328Z,19.06
2022-10-13T19:27:47.184Z,19.01
2022-10-13T19:32:44.760Z,18.86
2022-10-13T19:37:45.561Z,18.93
2022-10-13T19:42:42.304Z,18.78
2022-10-13T19:47:39.097Z,18.65
2022-10-13T19:52:36.756Z,18.64
2022-10-13T19:57:33.322Z,18.74
2022-10-13T20:02:30.018Z,18.76
2022-10-13T20:07:26.604Z,18.79
2022-10-13T20:12:23.877Z,18.57
2022-10-13T20:17:21.027Z,18.46
2022-10-13T20:22:18.096Z,18.04
2022-10-13T20:27:14.924Z,17.96
2022-10-13T20:32:14.540Z,18.10
2022-10-13T20:37:11.142Z,18.13
2022-10-13T20:42:07.703Z,18.25
2022-10-13T20:47:04.490Z,18.27
2022-10-13T20:52:01.722Z,18.38
2022-10-13T20:56:58.516Z,18.49
2022-10-13T21:01:55.019Z,18.40
2022-10-13T21:06:52.292Z,17.67
2022-10-13T21:11:49.672Z,17.06
2022-10-13T21:16:46.282Z,17.06
2022-10-13T21:21:43.332Z,17.38
2022-10-13T21:26:40.195Z,17.66
2022-10-13T21:31:42.941Z,17.70
2022-10-13T21:36:43.974Z,17.68
2022-10-13T21:41:40.495Z,17.65
2022-10-13T21:46:37.163Z,17.19
2022-10-13T21:51:36.089Z,17.04
2022-10-13T21:56:35.374Z,16.61
2022-10-13T22:01:33.402Z,16.35
2022-10-13T22:06:31.784Z,16.64
2022-10-13T22:11:30.441Z,17.04
2022-10-13T22:16:30.643Z,16.97
2022-10-13T22:21:29.542Z,16.34
2022-10-13T22:26:26.877Z,16.25
2022-10-13T22:31:24.384Z,16.37
2022-10-13T22:36:21.960Z,16.29
2022-10-13T22:41:20.380Z,16.17
2022-10-13T22:46:18.221Z,16.40
2022-10-13T22:51:16.824Z,16.57
2022-10-13T22:56:14.383Z,16.73
2022-10-13T23:01:12.163Z,16.73
2022-10-13T23:06:12.728Z,17.05
2022-10-13T23:11:10.130Z,17.16
2022-10-13T23:16:08.258Z,17.23
2022-10-13T23:21:07.480Z,17.36
2022-10-13T23:26:04.262Z,17.25
2022-10-13T23:31:02.597Z,17.20
2022-10-13T23:36:00.374Z,17.19
2022-10-13T23:41:01.924Z,17.15
2022-10-13T23:45:58.573Z,17.08
2022-10-13T23:50:56.685Z,17.15
2022-10-13T23:55:53.271Z,17.04
